sensor_id;sensor_type;location;lat;lon;timestamp;temperature;humidity
29431;DHT22;16404;49.902;10.074;2024-01-06T00:01:16;7.30;62.50
29431;DHT22;16404;49.902;10.074;2024-01-06T00:04:00;7.20;62.50
29431;DHT22;16404;49.902;10.074;2024-01-06T00:06:45;7.20;62.50
29431;DHT22;16404;49.902;10.074;2024-01-06T00:09:29;7.10;62.50
29431;DHT22;16404;49.902;10.074;2024-01-06T00:12:14;7.10;63.20
29431;DHT22;16404;49.902;10.074;2024-01-06T00:14:59;7.10;63.20
29431;DHT22;16404;49.902;10.074;2024-01-06T00:17:43;7.00;62.40
29431;DHT22;16404;49.902;10.074;2024-01-06T00:20:28;7.00;62.20
29431;DHT22;16404;49.902;10.074;2024-01-06T00:23:12;7.00;62.10
29431;DHT22;16404;49.902;10.074;2024-01-06T00:25:57;7.00;62.10
29431;DHT22;16404;49.902;10.074;2024-01-06T00:28:42;7.00;62.10
29431;DHT22;16404;49.902;10.074;2024-01-06T00:31:26;6.90;62.00
29431;DHT22;16404;49.902;10.074;2024-01-06T00:34:11;6.90;62.10
29431;DHT22;16404;49.902;10.074;2024-01-06T00:36:55;6.90;62.10
29431;DHT22;16404;49.902;10.074;2024-01-06T00:39:40;6.90;61.70
29431;DHT22;16404;49.902;10.074;2024-01-06T00:42:25;6.90;61.80
29431;DHT22;16404;49.902;10.074;2024-01-06T00:45:09;6.90;61.70
29431;DHT22;16404;49.902;10.074;2024-01-06T00:47:54;6.80;61.70
29431;DHT22;16404;49.902;10.074;2024-01-06T00:50:39;6.80;61.70
29431;DHT22;16404;49.902;10.074;2024-01-06T00:53:23;6.80;61.70
29431;DHT22;16404;49.902;10.074;2024-01-06T00:56:08;6.70;61.70
29431;DHT22;16404;49.902;10.074;2024-01-06T00:58:53;6.70;61.70
29431;DHT22;16404;49.902;10.074;2024-01-06T01:01:37;6.70;61.70
29431;DHT22;16404;49.902;10.074;2024-01-06T01:04:22;6.70;61.70
29431;DHT22;16404;49.902;10.074;2024-01-06T01:07:06;6.60;61.90
29431;DHT22;16404;49.902;10.074;2024-01-06T01:09:51;6.60;62.00
29431;DHT22;16404;49.902;10.074;2024-01-06T01:12:36;6.60;62.20
29431;DHT22;16404;49.902;10.074;2024-01-06T01:15:20;6.60;62.20
29431;DHT22;16404;49.902;10.074;2024-01-06T01:18:05;6.50;62.20
29431;DHT22;16404;49.902;10.074;2024-01-06T01:20:50;6.50;62.20
29431;DHT22;16404;49.902;10.074;2024-01-06T01:23:34;6.50;62.30
29431;DHT22;16404;49.902;10.074;2024-01-06T01:26:19;6.50;62.30
29431;DHT22;16404;49.902;10.074;2024-01-06T01:29:03;6.40;62.20
29431;DHT22;16404;49.902;10.074;2024-01-06T01:31:48;6.40;62.20
29431;DHT22;16404;49.902;10.074;2024-01-06T01:34:33;6.40;62.20
29431;DHT22;16404;49.902;10.074;2024-01-06T01:37:17;6.40;62.40
29431;DHT22;16404;49.902;10.074;2024-01-06T01:40:02;6.30;62.40
29431;DHT22;16404;49.902;10.074;2024-01-06T01:42:47;6.30;62.40
29431;DHT22;16404;49.902;10.074;2024-01-06T01:45:31;6.40;62.50
29431;DHT22;16404;49.902;10.074;2024-01-06T01:48:16;6.40;62.30
29431;DHT22;16404;49.902;10.074;2024-01-06T01:51:01;6.40;62.20
29431;DHT22;16404;49.902;10.074;2024-01-06T01:53:46;6.40;62.20
29431;DHT22;16404;49.902;10.074;2024-01-06T01:56:31;6.40;62.10
29431;DHT22;16404;49.902;10.074;2024-01-06T01:59:19;6.40;62.00
29431;DHT22;16404;49.902;10.074;2024-01-06T02:02:04;6.40;62.00
29431;DHT22;16404;49.902;10.074;2024-01-06T02:04:49;6.30;61.90
29431;DHT22;16404;49.902;10.074;2024-01-06T02:07:33;6.30;61.90
29431;DHT22;16404;49.902;10.074;2024-01-06T02:10:18;6.30;61.90
29431;DHT22;16404;49.902;10.074;2024-01-06T02:13:10;6.20;61.90
29431;DHT22;16404;49.902;10.074;2024-01-06T02:15:55;6.10;62.10
29431;DHT22;16404;49.902;10.074;2024-01-06T02:18:40;6.20;62.10
29431;DHT22;16404;49.902;10.074;2024-01-06T02:21:27;6.30;62.10
29431;DHT22;16404;49.902;10.074;2024-01-06T02:24:12;6.20;61.60
29431;DHT22;16404;49.902;10.074;2024-01-06T02:26:56;6.10;61.60
29431;DHT22;16404;49.902;10.074;2024-01-06T02:29:41;6.10;61.70
29431;DHT22;16404;49.902;10.074;2024-01-06T02:32:25;6.10;61.80
29431;DHT22;16404;49.902;10.074;2024-01-06T02:35:10;6.10;61.70
29431;DHT22;16404;49.902;10.074;2024-01-06T02:37:54;6.00;61.60
29431;DHT22;16404;49.902;10.074;2024-01-06T02:40:39;6.00;61.60
29431;DHT22;16404;49.902;10.074;2024-01-06T02:43:24;6.00;61.60
29431;DHT22;16404;49.902;10.074;2024-01-06T02:46:08;6.10;61.60
29431;DHT22;16404;49.902;10.074;2024-01-06T02:48:53;6.00;61.50
29431;DHT22;16404;49.902;10.074;2024-01-06T02:51:37;6.00;61.60
29431;DHT22;16404;49.902;10.074;2024-01-06T02:54:22;5.90;61.60
29431;DHT22;16404;49.902;10.074;2024-01-06T02:57:06;5.90;61.80
29431;DHT22;16404;49.902;10.074;2024-01-06T02:59:51;5.90;62.30
29431;DHT22;16404;49.902;10.074;2024-01-06T03:02:36;5.80;62.70
29431;DHT22;16404;49.902;10.074;2024-01-06T03:05:21;5.80;63.80
29431;DHT22;16404;49.902;10.074;2024-01-06T03:08:06;5.70;63.30
29431;DHT22;16404;49.902;10.074;2024-01-06T03:10:50;5.70;63.60
29431;DHT22;16404;49.902;10.074;2024-01-06T03:13:35;5.60;63.80
29431;DHT22;16404;49.902;10.074;2024-01-06T03:16:20;5.60;64.00
29431;DHT22;16404;49.902;10.074;2024-01-06T03:19:04;5.60;64.10
29431;DHT22;16404;49.902;10.074;2024-01-06T03:21:49;5.60;64.10
29431;DHT22;16404;49.902;10.074;2024-01-06T03:24:33;5.60;64.00
29431;DHT22;16404;49.902;10.074;2024-01-06T03:27:18;5.60;64.00
29431;DHT22;16404;49.902;10.074;2024-01-06T03:30:03;5.60;64.00
29431;DHT22;16404;49.902;10.074;2024-01-06T03:32:48;5.50;64.20
29431;DHT22;16404;49.902;10.074;2024-01-06T03:35:32;5.50;64.70
29431;DHT22;16404;49.902;10.074;2024-01-06T03:38:17;5.40;66.00
29431;DHT22;16404;49.902;10.074;2024-01-06T03:41:02;5.40;65.80
29431;DHT22;16404;49.902;10.074;2024-01-06T03:43:46;5.40;66.00
29431;DHT22;16404;49.902;10.074;2024-01-06T03:46:31;5.50;66.20
29431;DHT22;16404;49.902;10.074;2024-01-06T03:49:15;5.50;66.40
29431;DHT22;16404;49.902;10.074;2024-01-06T03:52:02;5.50;66.60
29431;DHT22;16404;49.902;10.074;2024-01-06T03:54:47;5.60;67.10
29431;DHT22;16404;49.902;10.074;2024-01-06T03:57:32;5.60;67.30
29431;DHT22;16404;49.902;10.074;2024-01-06T04:00:16;5.70;67.50
29431;DHT22;16404;49.902;10.074;2024-01-06T04:03:01;5.70;68.00
29431;DHT22;16404;49.902;10.074;2024-01-06T04:05:45;5.80;68.20
29431;DHT22;16404;49.902;10.074;2024-01-06T04:08:30;5.90;68.10
29431;DHT22;16404;49.902;10.074;2024-01-06T04:11:14;6.00;68.00
29431;DHT22;16404;49.902;10.074;2024-01-06T04:13:59;6.10;67.80
29431;DHT22;16404;49.902;10.074;2024-01-06T04:16:43;6.10;67.70
29431;DHT22;16404;49.902;10.074;2024-01-06T04:19:28;6.10;67.80
29431;DHT22;16404;49.902;10.074;2024-01-06T04:22:13;6.20;67.80
29431;DHT22;16404;49.902;10.074;2024-01-06T04:24:57;6.20;67.80
29431;DHT22;16404;49.902;10.074;2024-01-06T04:27:42;6.20;67.60
29431;DHT22;16404;49.902;10.074;2024-01-06T04:30:26;6.20;67.50
29431;DHT22;16404;49.902;10.074;2024-01-06T04:33:11;6.20;67.40
29431;DHT22;16404;49.902;10.074;2024-01-06T04:35:56;6.30;67.60
29431;DHT22;16404;49.902;10.074;2024-01-06T04:38:40;6.20;67.60
29431;DHT22;16404;49.902;10.074;2024-01-06T04:41:25;6.20;67.80
29431;DHT22;16404;49.902;10.074;2024-01-06T04:44:09;6.30;67.70
29431;DHT22;16404;49.902;10.074;2024-01-06T04:46:54;6.30;67.40
29431;DHT22;16404;49.902;10.074;2024-01-06T04:49:38;6.20;67.60
29431;DHT22;16404;49.902;10.074;2024-01-06T04:52:23;6.20;67.70
29431;DHT22;16404;49.902;10.074;2024-01-06T04:55:08;6.20;67.90
29431;DHT22;16404;49.902;10.074;2024-01-06T04:57:53;6.20;68.00
29431;DHT22;16404;49.902;10.074;2024-01-06T05:00:37;6.20;67.70
29431;DHT22;16404;49.902;10.074;2024-01-06T05:03:22;6.20;67.60
29431;DHT22;16404;49.902;10.074;2024-01-06T05:06:06;6.30;67.60
29431;DHT22;16404;49.902;10.074;2024-01-06T05:08:51;6.30;67.60
29431;DHT22;16404;49.902;10.074;2024-01-06T05:11:36;6.30;67.50
29431;DHT22;16404;49.902;10.074;2024-01-06T05:14:21;6.40;67.30
29431;DHT22;16404;49.902;10.074;2024-01-06T05:17:05;6.40;67.00
29431;DHT22;16404;49.902;10.074;2024-01-06T05:19:50;6.40;66.90
29431;DHT22;16404;49.902;10.074;2024-01-06T05:22:34;6.40;66.80
29431;DHT22;16404;49.902;10.074;2024-01-06T05:25:19;6.50;66.60
29431;DHT22;16404;49.902;10.074;2024-01-06T05:28:04;6.50;66.20
29431;DHT22;16404;49.902;10.074;2024-01-06T05:30:48;6.60;65.90
29431;DHT22;16404;49.902;10.074;2024-01-06T05:33:33;6.70;65.70
29431;DHT22;16404;49.902;10.074;2024-01-06T05:36:20;6.70;65.40
29431;DHT22;16404;49.902;10.074;2024-01-06T05:39:05;6.70;65.20
29431;DHT22;16404;49.902;10.074;2024-01-06T05:41:50;6.70;65.30
29431;DHT22;16404;49.902;10.074;2024-01-06T05:44:37;6.70;65.20
29431;DHT22;16404;49.902;10.074;2024-01-06T05:47:22;6.70;65.20
29431;DHT22;16404;49.902;10.074;2024-01-06T05:50:07;6.70;65.20
29431;DHT22;16404;49.902;10.074;2024-01-06T05:52:55;6.70;65.20
29431;DHT22;16404;49.902;10.074;2024-01-06T05:55:39;6.60;65.10
29431;DHT22;16404;49.902;10.074;2024-01-06T05:58:24;6.60;65.20
29431;DHT22;16404;49.902;10.074;2024-01-06T06:01:09;6.60;65.20
29431;DHT22;16404;49.902;10.074;2024-01-06T06:03:53;6.60;65.30
29431;DHT22;16404;49.902;10.074;2024-01-06T06:06:38;6.60;65.30
29431;DHT22;16404;49.902;10.074;2024-01-06T06:09:23;6.60;65.30
29431;DHT22;16404;49.902;10.074;2024-01-06T06:12:07;6.70;65.50
29431;DHT22;16404;49.902;10.074;2024-01-06T06:14:52;6.70;65.40
29431;DHT22;16404;49.902;10.074;2024-01-06T06:17:37;6.70;65.50
29431;DHT22;16404;49.902;10.074;2024-01-06T06:20:21;6.70;65.60
29431;DHT22;16404;49.902;10.074;2024-01-06T06:23:06;6.80;65.60
29431;DHT22;16404;49.902;10.074;2024-01-06T06:25:50;6.80;66.40
29431;DHT22;16404;49.902;10.074;2024-01-06T06:28:35;6.80;65.70
29431;DHT22;16404;49.902;10.074;2024-01-06T06:31:20;6.80;65.80
29431;DHT22;16404;49.902;10.074;2024-01-06T06:34:04;6.80;65.70
29431;DHT22;16404;49.902;10.074;2024-01-06T06:36:49;6.80;65.90
29431;DHT22;16404;49.902;10.074;2024-01-06T06:39:34;6.90;65.90
29431;DHT22;16404;49.902;10.074;2024-01-06T06:42:19;6.90;66.00
29431;DHT22;16404;49.902;10.074;2024-01-06T06:45:04;6.90;66.00
29431;DHT22;16404;49.902;10.074;2024-01-06T06:47:49;6.90;66.00
29431;DHT22;16404;49.902;10.074;2024-01-06T06:50:33;6.90;66.00
29431;DHT22;16404;49.902;10.074;2024-01-06T06:53:18;7.00;66.00
29431;DHT22;16404;49.902;10.074;2024-01-06T06:56:03;7.00;65.80
29431;DHT22;16404;49.902;10.074;2024-01-06T06:58:47;7.10;65.90
29431;DHT22;16404;49.902;10.074;2024-01-06T07:01:32;7.10;65.90
29431;DHT22;16404;49.902;10.074;2024-01-06T07:04:16;7.20;65.90
29431;DHT22;16404;49.902;10.074;2024-01-06T07:07:01;7.20;66.00
29431;DHT22;16404;49.902;10.074;2024-01-06T07:09:46;7.20;66.00
29431;DHT22;16404;49.902;10.074;2024-01-06T07:12:31;7.30;66.00
29431;DHT22;16404;49.902;10.074;2024-01-06T07:15:15;7.30;66.00
29431;DHT22;16404;49.902;10.074;2024-01-06T07:18:00;7.30;65.90
29431;DHT22;16404;49.902;10.074;2024-01-06T07:20:45;7.30;65.90
29431;DHT22;16404;49.902;10.074;2024-01-06T07:23:29;7.30;65.90
29431;DHT22;16404;49.902;10.074;2024-01-06T07:26:14;7.30;65.90
29431;DHT22;16404;49.902;10.074;2024-01-06T07:28:59;7.40;66.00
29431;DHT22;16404;49.902;10.074;2024-01-06T07:31:43;7.40;66.00
29431;DHT22;16404;49.902;10.074;2024-01-06T07:34:28;7.30;66.00
29431;DHT22;16404;49.902;10.074;2024-01-06T07:37:13;7.40;66.10
29431;DHT22;16404;49.902;10.074;2024-01-06T07:39:57;7.40;66.90
29431;DHT22;16404;49.902;10.074;2024-01-06T07:42:43;7.40;66.20
29431;DHT22;16404;49.902;10.074;2024-01-06T07:45:27;7.40;66.10
29431;DHT22;16404;49.902;10.074;2024-01-06T07:48:12;7.40;66.20
29431;DHT22;16404;49.902;10.074;2024-01-06T07:50:56;7.50;66.20
29431;DHT22;16404;49.902;10.074;2024-01-06T07:53:41;7.50;66.10
29431;DHT22;16404;49.902;10.074;2024-01-06T07:56:26;7.60;66.10
29431;DHT22;16404;49.902;10.074;2024-01-06T07:59:11;7.50;66.10
29431;DHT22;16404;49.902;10.074;2024-01-06T08:01:55;7.60;66.20
29431;DHT22;16404;49.902;10.074;2024-01-06T08:04:40;7.60;66.10
29431;DHT22;16404;49.902;10.074;2024-01-06T08:07:24;7.70;66.10
29431;DHT22;16404;49.902;10.074;2024-01-06T08:10:09;7.70;66.20
29431;DHT22;16404;49.902;10.074;2024-01-06T08:12:54;7.80;66.20
29431;DHT22;16404;49.902;10.074;2024-01-06T08:15:38;7.80;66.20
29431;DHT22;16404;49.902;10.074;2024-01-06T08:18:23;7.80;66.10
29431;DHT22;16404;49.902;10.074;2024-01-06T08:21:08;7.80;66.20
29431;DHT22;16404;49.902;10.074;2024-01-06T08:23:52;7.80;66.20
29431;DHT22;16404;49.902;10.074;2024-01-06T08:26:37;7.90;66.30
29431;DHT22;16404;49.902;10.074;2024-01-06T08:29:21;7.90;66.30
29431;DHT22;16404;49.902;10.074;2024-01-06T08:32:06;7.90;66.20
29431;DHT22;16404;49.902;10.074;2024-01-06T08:34:51;8.00;66.30
29431;DHT22;16404;49.902;10.074;2024-01-06T08:37:35;8.00;66.40
29431;DHT22;16404;49.902;10.074;2024-01-06T08:40:20;8.00;66.60
29431;DHT22;16404;49.902;10.074;2024-01-06T08:43:04;8.00;66.70
29431;DHT22;16404;49.902;10.074;2024-01-06T08:45:49;8.00;66.70
29431;DHT22;16404;49.902;10.074;2024-01-06T08:48:35;8.10;66.80
29431;DHT22;16404;49.902;10.074;2024-01-06T08:51:19;8.10;67.00
29431;DHT22;16404;49.902;10.074;2024-01-06T08:54:04;8.10;67.00
29431;DHT22;16404;49.902;10.074;2024-01-06T08:56:50;8.10;67.20
29431;DHT22;16404;49.902;10.074;2024-01-06T08:59:34;8.10;67.50
29431;DHT22;16404;49.902;10.074;2024-01-06T09:02:19;8.10;67.60
29431;DHT22;16404;49.902;10.074;2024-01-06T09:05:04;8.10;67.80
29431;DHT22;16404;49.902;10.074;2024-01-06T09:07:48;8.10;67.80
29431;DHT22;16404;49.902;10.074;2024-01-06T09:10:34;8.10;67.90
29431;DHT22;16404;49.902;10.074;2024-01-06T09:13:19;8.20;67.80
29431;DHT22;16404;49.902;10.074;2024-01-06T09:16:06;8.30;67.90
29431;DHT22;16404;49.902;10.074;2024-01-06T09:18:50;8.30;67.80
29431;DHT22;16404;49.902;10.074;2024-01-06T09:21:35;8.30;67.70
29431;DHT22;16404;49.902;10.074;2024-01-06T09:24:20;8.40;67.70
29431;DHT22;16404;49.902;10.074;2024-01-06T09:27:04;8.40;67.60
29431;DHT22;16404;49.902;10.074;2024-01-06T09:29:49;8.50;67.50
29431;DHT22;16404;49.902;10.074;2024-01-06T09:32:35;8.60;67.30
29431;DHT22;16404;49.902;10.074;2024-01-06T09:35:19;8.70;67.10
29431;DHT22;16404;49.902;10.074;2024-01-06T09:38:04;8.80;67.00
29431;DHT22;16404;49.902;10.074;2024-01-06T09:40:49;8.80;66.90
29431;DHT22;16404;49.902;10.074;2024-01-06T09:43:33;8.80;66.90
29431;DHT22;16404;49.902;10.074;2024-01-06T09:46:24;8.80;67.00
29431;DHT22;16404;49.902;10.074;2024-01-06T09:49:10;8.90;67.10
29431;DHT22;16404;49.902;10.074;2024-01-06T09:51:58;9.00;67.00
29431;DHT22;16404;49.902;10.074;2024-01-06T09:54:49;9.00;66.70
29431;DHT22;16404;49.902;10.074;2024-01-06T09:57:35;9.10;66.50
29431;DHT22;16404;49.902;10.074;2024-01-06T10:00:20;9.20;66.40
29431;DHT22;16404;49.902;10.074;2024-01-06T10:03:04;9.20;66.30
29431;DHT22;16404;49.902;10.074;2024-01-06T10:05:49;9.30;66.90
29431;DHT22;16404;49.902;10.074;2024-01-06T10:08:35;9.30;66.10
29431;DHT22;16404;49.902;10.074;2024-01-06T10:11:21;9.30;66.00
29431;DHT22;16404;49.902;10.074;2024-01-06T10:14:06;9.40;65.90
29431;DHT22;16404;49.902;10.074;2024-01-06T10:16:54;9.40;65.80
29431;DHT22;16404;49.902;10.074;2024-01-06T10:19:38;9.50;65.90
29431;DHT22;16404;49.902;10.074;2024-01-06T10:22:23;9.50;65.80
29431;DHT22;16404;49.902;10.074;2024-01-06T10:25:09;9.60;65.80
29431;DHT22;16404;49.902;10.074;2024-01-06T10:27:53;9.60;65.80
29431;DHT22;16404;49.902;10.074;2024-01-06T10:30:38;9.70;65.90
29431;DHT22;16404;49.902;10.074;2024-01-06T10:33:23;9.70;65.80
29431;DHT22;16404;49.902;10.074;2024-01-06T10:36:09;9.70;65.70
29431;DHT22;16404;49.902;10.074;2024-01-06T10:38:54;9.80;65.70
29431;DHT22;16404;49.902;10.074;2024-01-06T10:41:41;9.90;65.50
29431;DHT22;16404;49.902;10.074;2024-01-06T10:44:27;10.00;64.90
29431;DHT22;16404;49.902;10.074;2024-01-06T10:47:14;10.00;64.90
29431;DHT22;16404;49.902;10.074;2024-01-06T10:50:00;10.00;65.10
29431;DHT22;16404;49.902;10.074;2024-01-06T10:52:44;10.00;64.90
29431;DHT22;16404;49.902;10.074;2024-01-06T10:55:30;10.10;64.80
29431;DHT22;16404;49.902;10.074;2024-01-06T10:58:17;10.20;64.50
29431;DHT22;16404;49.902;10.074;2024-01-06T11:01:02;10.10;64.70
29431;DHT22;16404;49.902;10.074;2024-01-06T11:03:47;10.10;64.80
29431;DHT22;16404;49.902;10.074;2024-01-06T11:06:33;10.20;64.90
29431;DHT22;16404;49.902;10.074;2024-01-06T11:09:27;10.20;64.90
29431;DHT22;16404;49.902;10.074;2024-01-06T11:12:15;10.20;64.90
29431;DHT22;16404;49.902;10.074;2024-01-06T11:15:00;10.30;64.80
29431;DHT22;16404;49.902;10.074;2024-01-06T11:17:54;10.40;64.80
29431;DHT22;16404;49.902;10.074;2024-01-06T11:24:18;10.40;65.00
29431;DHT22;16404;49.902;10.074;2024-01-06T11:27:08;10.40;65.00
29431;DHT22;16404;49.902;10.074;2024-01-06T11:30:03;10.40;64.90
29431;DHT22;16404;49.902;10.074;2024-01-06T11:32:51;10.50;64.90
29431;DHT22;16404;49.902;10.074;2024-01-06T11:35:37;10.40;64.80
29431;DHT22;16404;49.902;10.074;2024-01-06T11:38:23;10.40;65.00
29431;DHT22;16404;49.902;10.074;2024-01-06T11:41:08;10.50;65.00
29431;DHT22;16404;49.902;10.074;2024-01-06T11:43:55;10.50;65.00
29431;DHT22;16404;49.902;10.074;2024-01-06T11:46:41;10.60;65.00
29431;DHT22;16404;49.902;10.074;2024-01-06T11:49:27;10.60;65.00
29431;DHT22;16404;49.902;10.074;2024-01-06T11:52:12;10.70;65.10
29431;DHT22;16404;49.902;10.074;2024-01-06T11:54:58;10.80;65.00
29431;DHT22;16404;49.902;10.074;2024-01-06T11:57:42;10.80;65.20
29431;DHT22;16404;49.902;10.074;2024-01-06T12:00:28;11.00;65.40
29431;DHT22;16404;49.902;10.074;2024-01-06T12:03:15;11.00;65.20
29431;DHT22;16404;49.902;10.074;2024-01-06T12:06:03;11.20;64.40
29431;DHT22;16404;49.902;10.074;2024-01-06T12:08:48;11.20;63.90
29431;DHT22;16404;49.902;10.074;2024-01-06T12:11:32;11.30;63.80
29431;DHT22;16404;49.902;10.074;2024-01-06T12:14:17;11.30;64.00
29431;DHT22;16404;49.902;10.074;2024-01-06T12:17:03;11.30;63.70
29431;DHT22;16404;49.902;10.074;2024-01-06T12:19:48;11.40;63.30
29431;DHT22;16404;49.902;10.074;2024-01-06T12:22:32;11.50;62.90
29431;DHT22;16404;49.902;10.074;2024-01-06T12:25:17;11.50;62.70
29431;DHT22;16404;49.902;10.074;2024-01-06T12:28:02;11.50;62.70
29431;DHT22;16404;49.902;10.074;2024-01-06T12:30:46;11.50;62.40
29431;DHT22;16404;49.902;10.074;2024-01-06T12:33:31;11.60;62.50
29431;DHT22;16404;49.902;10.074;2024-01-06T12:36:16;11.60;62.40
29431;DHT22;16404;49.902;10.074;2024-01-06T12:39:03;11.60;62.80
29431;DHT22;16404;49.902;10.074;2024-01-06T12:41:47;11.60;62.20
29431;DHT22;16404;49.902;10.074;2024-01-06T12:44:32;11.50;62.10
29431;DHT22;16404;49.902;10.074;2024-01-06T12:47:17;11.50;63.00
29431;DHT22;16404;49.902;10.074;2024-01-06T12:50:02;11.40;62.30
29431;DHT22;16404;49.902;10.074;2024-01-06T12:52:48;11.40;62.20
29431;DHT22;16404;49.902;10.074;2024-01-06T12:55:33;11.40;62.00
29431;DHT22;16404;49.902;10.074;2024-01-06T12:58:18;11.40;61.90
29431;DHT22;16404;49.902;10.074;2024-01-06T13:01:02;11.40;61.80
29431;DHT22;16404;49.902;10.074;2024-01-06T13:03:47;11.40;61.70
29431;DHT22;16404;49.902;10.074;2024-01-06T13:06:32;11.30;61.50
29431;DHT22;16404;49.902;10.074;2024-01-06T13:09:17;11.30;61.60
29431;DHT22;16404;49.902;10.074;2024-01-06T13:12:01;11.30;61.50
29431;DHT22;16404;49.902;10.074;2024-01-06T13:14:46;11.30;61.50
29431;DHT22;16404;49.902;10.074;2024-01-06T13:17:31;11.30;61.70
29431;DHT22;16404;49.902;10.074;2024-01-06T13:20:16;11.30;61.60
29431;DHT22;16404;49.902;10.074;2024-01-06T13:23:00;11.20;61.90
29431;DHT22;16404;49.902;10.074;2024-01-06T13:25:45;11.10;62.20
29431;DHT22;16404;49.902;10.074;2024-01-06T13:28:30;11.10;62.30
29431;DHT22;16404;49.902;10.074;2024-01-06T13:31:14;11.10;62.30
29431;DHT22;16404;49.902;10.074;2024-01-06T13:33:59;11.00;62.40
29431;DHT22;16404;49.902;10.074;2024-01-06T13:36:44;11.00;62.50
29431;DHT22;16404;49.902;10.074;2024-01-06T13:39:28;11.00;62.60
29431;DHT22;16404;49.902;10.074;2024-01-06T13:42:13;10.90;62.50
29431;DHT22;16404;49.902;10.074;2024-01-06T13:44:57;10.90;62.50
29431;DHT22;16404;49.902;10.074;2024-01-06T13:47:44;10.90;62.50
29431;DHT22;16404;49.902;10.074;2024-01-06T13:50:29;10.90;62.40
29431;DHT22;16404;49.902;10.074;2024-01-06T13:53:14;10.90;62.30
29431;DHT22;16404;49.902;10.074;2024-01-06T13:55:59;10.90;62.30
29431;DHT22;16404;49.902;10.074;2024-01-06T13:58:43;10.90;62.30
29431;DHT22;16404;49.902;10.074;2024-01-06T14:01:29;10.90;62.30
29431;DHT22;16404;49.902;10.074;2024-01-06T14:04:14;10.90;62.40
29431;DHT22;16404;49.902;10.074;2024-01-06T14:06:58;10.80;62.30
29431;DHT22;16404;49.902;10.074;2024-01-06T14:09:43;10.80;62.30
29431;DHT22;16404;49.902;10.074;2024-01-06T14:12:28;10.80;62.40
29431;DHT22;16404;49.902;10.074;2024-01-06T14:15:12;10.80;62.30
29431;DHT22;16404;49.902;10.074;2024-01-06T14:17:57;10.80;62.30
29431;DHT22;16404;49.902;10.074;2024-01-06T14:20:42;10.90;62.20
29431;DHT22;16404;49.902;10.074;2024-01-06T14:23:27;10.80;62.10
29431;DHT22;16404;49.902;10.074;2024-01-06T14:26:14;10.80;62.00
29431;DHT22;16404;49.902;10.074;2024-01-06T14:28:58;10.80;61.90
29431;DHT22;16404;49.902;10.074;2024-01-06T14:31:43;10.80;61.90
29431;DHT22;16404;49.902;10.074;2024-01-06T14:34:27;10.80;62.00
29431;DHT22;16404;49.902;10.074;2024-01-06T14:37:12;10.80;62.00
29431;DHT22;16404;49.902;10.074;2024-01-06T14:39:56;10.80;62.00
29431;DHT22;16404;49.902;10.074;2024-01-06T14:42:41;10.80;62.00
29431;DHT22;16404;49.902;10.074;2024-01-06T14:45:25;10.70;62.00
29431;DHT22;16404;49.902;10.074;2024-01-06T14:48:10;10.70;62.10
29431;DHT22;16404;49.902;10.074;2024-01-06T14:50:55;10.70;62.20
29431;DHT22;16404;49.902;10.074;2024-01-06T14:53:39;10.70;62.30
29431;DHT22;16404;49.902;10.074;2024-01-06T14:56:24;10.70;62.30
29431;DHT22;16404;49.902;10.074;2024-01-06T14:59:09;10.70;62.40
29431;DHT22;16404;49.902;10.074;2024-01-06T15:01:53;10.70;62.40
29431;DHT22;16404;49.902;10.074;2024-01-06T15:04:38;10.70;62.40
29431;DHT22;16404;49.902;10.074;2024-01-06T15:07:23;10.80;62.40
29431;DHT22;16404;49.902;10.074;2024-01-06T15:10:08;10.80;62.30
29431;DHT22;16404;49.902;10.074;2024-01-06T15:12:54;10.80;62.00
29431;DHT22;16404;49.902;10.074;2024-01-06T15:15:39;10.80;62.00
29431;DHT22;16404;49.902;10.074;2024-01-06T15:18:24;10.80;62.10
29431;DHT22;16404;49.902;10.074;2024-01-06T15:21:08;10.80;62.10
29431;DHT22;16404;49.902;10.074;2024-01-06T15:23:53;10.70;62.10
29431;DHT22;16404;49.902;10.074;2024-01-06T15:26:41;10.80;62.20
29431;DHT22;16404;49.902;10.074;2024-01-06T15:29:25;10.70;62.10
29431;DHT22;16404;49.902;10.074;2024-01-06T15:32:10;10.70;62.10
29431;DHT22;16404;49.902;10.074;2024-01-06T15:34:54;10.70;62.20
29431;DHT22;16404;49.902;10.074;2024-01-06T15:37:39;10.70;62.30
29431;DHT22;16404;49.902;10.074;2024-01-06T15:40:23;10.60;62.20
29431;DHT22;16404;49.902;10.074;2024-01-06T15:43:08;10.60;62.20
29431;DHT22;16404;49.902;10.074;2024-01-06T15:45:53;10.60;62.30
29431;DHT22;16404;49.902;10.074;2024-01-06T15:48:39;10.60;62.30
29431;DHT22;16404;49.902;10.074;2024-01-06T15:51:23;10.60;62.30
29431;DHT22;16404;49.902;10.074;2024-01-06T15:54:07;10.50;62.40
29431;DHT22;16404;49.902;10.074;2024-01-06T15:56:52;10.50;62.40
29431;DHT22;16404;49.902;10.074;2024-01-06T15:59:37;10.50;62.40
29431;DHT22;16404;49.902;10.074;2024-01-06T16:02:21;10.50;62.40
29431;DHT22;16404;49.902;10.074;2024-01-06T16:05:06;10.50;62.40
29431;DHT22;16404;49.902;10.074;2024-01-06T16:07:51;10.50;62.30
29431;DHT22;16404;49.902;10.074;2024-01-06T16:10:36;10.50;62.30
29431;DHT22;16404;49.902;10.074;2024-01-06T16:13:21;10.50;62.00
29431;DHT22;16404;49.902;10.074;2024-01-06T16:16:05;10.40;62.00
29431;DHT22;16404;49.902;10.074;2024-01-06T16:18:50;10.40;62.00
29431;DHT22;16404;49.902;10.074;2024-01-06T16:21:34;10.30;62.00
29431;DHT22;16404;49.902;10.074;2024-01-06T16:24:19;10.30;62.00
29431;DHT22;16404;49.902;10.074;2024-01-06T16:27:03;10.30;62.00
29431;DHT22;16404;49.902;10.074;2024-01-06T16:29:48;10.30;61.90
29431;DHT22;16404;49.902;10.074;2024-01-06T16:32:33;10.20;62.00
29431;DHT22;16404;49.902;10.074;2024-01-06T16:35:17;10.20;61.90
29431;DHT22;16404;49.902;10.074;2024-01-06T16:38:02;10.20;62.10
29431;DHT22;16404;49.902;10.074;2024-01-06T16:40:46;10.10;62.00
29431;DHT22;16404;49.902;10.074;2024-01-06T16:43:34;10.10;62.10
29431;DHT22;16404;49.902;10.074;2024-01-06T16:46:21;10.00;62.10
29431;DHT22;16404;49.902;10.074;2024-01-06T16:49:06;10.00;62.20
29431;DHT22;16404;49.902;10.074;2024-01-06T16:51:50;9.90;62.30
29431;DHT22;16404;49.902;10.074;2024-01-06T16:54:35;9.90;62.50
29431;DHT22;16404;49.902;10.074;2024-01-06T16:57:19;9.80;62.60
29431;DHT22;16404;49.902;10.074;2024-01-06T17:00:04;9.80;62.70
29431;DHT22;16404;49.902;10.074;2024-01-06T17:02:49;9.80;62.80
29431;DHT22;16404;49.902;10.074;2024-01-06T17:05:34;9.70;62.80
29431;DHT22;16404;49.902;10.074;2024-01-06T17:08:18;9.70;62.90
29431;DHT22;16404;49.902;10.074;2024-01-06T17:11:03;9.70;62.80
29431;DHT22;16404;49.902;10.074;2024-01-06T17:13:48;9.80;62.90
29431;DHT22;16404;49.902;10.074;2024-01-06T17:16:32;9.80;62.90
29431;DHT22;16404;49.902;10.074;2024-01-06T17:19:17;9.80;62.90